Time;durP1;ratioP1;P1;durP2;ratioP2;P2;SDS_P1;SDS_P2;PMS_P1;PMS_P2;Temp;Humidity;BMP_temperature;BMP_pressure;BME280_temperature;BME280_humidity;BME280_pressure;Samples;Min_cycle;Max_cycle;Signal;HPM_P1;HPM_P2
2022/05/13 00:01:08;;;;;;;2.75;2.47;;;;;;;19.16;55.78;101108.69;4925076;29;20052;-68
2022/05/13 00:03:37;;;;;;;3.92;2.60;;;;;;;19.11;56.09;101112.41;4923434;29;20040;-69
2022/05/13 00:06:06;;;;;;;3.75;2.75;;;;;;;19.08;56.52;101107.53;4928210;29;20056;-68
2022/05/13 00:08:34;;;;;;;4.38;2.78;;;;;;;19.02;57.76;101109.59;4926536;29;20044;-68
2022/05/13 00:11:04;;;;;;;4.68;2.60;;;;;;;18.94;56.70;101102.09;4934736;29;20067;-69
2022/05/13 00:13:32;;;;;;;6.00;2.72;;;;;;;19.00;56.91;101116.59;4920299;29;20403;-68
2022/05/13 00:16:01;;;;;;;5.30;2.78;;;;;;;18.95;56.81;101106.50;4919696;29;20055;-69
2022/05/13 00:18:29;;;;;;;3.38;2.70;;;;;;;18.87;57.88;101101.75;4920035;29;20059;-69
2022/05/13 00:20:58;;;;;;;3.20;2.83;;;;;;;18.83;57.41;101107.16;4925971;29;20075;-68
2022/05/13 00:23:26;;;;;;;5.15;2.60;;;;;;;18.80;57.69;101105.84;4931589;29;20054;-69
2022/05/13 00:25:54;;;;;;;4.40;2.92;;;;;;;18.81;57.47;101103.84;4925274;29;20063;-69
2022/05/13 00:28:22;;;;;;;6.65;3.55;;;;;;;18.83;58.17;101109.09;4924577;29;20051;-67
2022/05/13 00:30:50;;;;;;;4.05;3.35;;;;;;;18.81;58.45;101112.19;4936539;29;20495;-69
2022/05/13 00:33:19;;;;;;;4.95;3.00;;;;;;;18.71;60.15;101113.31;4953880;29;20038;-69
2022/05/13 00:35:49;;;;;;;7.78;3.30;;;;;;;18.63;59.12;101111.34;4936672;29;20060;-68
2022/05/13 00:38:17;;;;;;;5.65;3.30;;;;;;;18.60;60.53;101106.41;4947293;29;20055;-68
2022/05/13 00:40:46;;;;;;;5.78;3.35;;;;;;;18.61;60.65;101106.09;4935553;29;20052;-68
2022/05/13 00:43:34;;;;;;;5.10;3.30;;;;;;;18.61;61.41;101113.59;4939275;29;20048;-69
2022/05/13 00:46:03;;;;;;;6.60;3.70;;;;;;;18.59;60.85;101115.88;4942157;29;20059;-69
2022/05/13 00:48:34;;;;;;;4.75;3.25;;;;;;;18.56;62.06;101105.44;4936525;29;20055;-68
2022/05/13 00:51:05;;;;;;;4.28;3.45;;;;;;;18.50;61.36;101102.81;4934813;29;20052;-69
2022/05/13 00:53:34;;;;;;;5.18;3.25;;;;;;;18.49;61.59;101105.91;4939707;29;20055;-69
2022/05/13 00:56:03;;;;;;;7.88;3.85;;;;;;;18.44;61.62;101098.56;4945943;29;20063;-69
2022/05/13 00:58:34;;;;;;;8.82;3.88;;;;;;;18.43;62.65;101105.22;4933880;29;20051;-69
2022/05/13 01:01:02;;;;;;;5.47;3.78;;;;;;;18.43;63.52;101104.44;4938264;29;20055;-69
2022/05/13 01:03:30;;;;;;;4.60;3.67;;;;;;;18.42;63.11;101111.91;4935176;29;20522;-69
2022/05/13 01:06:03;;;;;;;4.75;3.80;;;;;;;18.43;63.17;101102.47;4941393;29;20379;-69
2022/05/13 01:08:32;;;;;;;6.88;3.97;;;;;;;18.40;62.93;101098.41;4944745;29;20054;-68
2022/05/13 01:11:02;;;;;;;5.38;3.85;;;;;;;18.37;64.17;101103.75;4939085;28;20054;-68
2022/05/13 01:13:32;;;;;;;7.38;3.72;;;;;;;18.40;64.00;101108.66;4942029;29;20043;-68
2022/05/13 01:16:00;;;;;;;3.45;3.10;;;;;;;18.41;62.87;101110.28;4935364;29;20043;-69
2022/05/13 01:18:35;;;;;;;4.15;3.58;;;;;;;18.39;63.54;101101.47;4942086;29;20047;-69
2022/05/13 01:21:06;;;;;;;3.47;2.78;;;;;;;18.36;63.90;101102.94;4941864;29;20517;-68
2022/05/13 01:23:40;;;;;;;4.35;3.30;;;;;;;18.43;64.47;101101.66;4932005;29;20047;-69
2022/05/13 01:26:12;;;;;;;6.15;3.38;;;;;;;18.39;64.69;101107.03;4947180;29;20054;-69
2022/05/13 01:28:46;;;;;;;6.90;3.72;;;;;;;18.34;65.36;101099.66;4931355;29;20055;-68
2022/05/13 01:31:21;;;;;;;4.55;3.72;;;;;;;18.37;66.34;101103.75;4910282;29;20052;-69
2022/05/13 01:33:49;;;;;;;5.22;3.90;;;;;;;18.33;67.24;101095.25;4926696;29;20048;-68
2022/05/13 01:36:17;;;;;;;5.65;3.75;;;;;;;18.41;67.14;101096.44;4930667;29;20403;-68
2022/05/13 01:38:44;;;;;;;6.18;4.25;;;;;;;18.34;67.67;101093.31;4923432;29;20050;-69
2022/05/13 01:41:13;;;;;;;5.25;3.78;;;;;;;18.26;68.72;101089.38;4921409;29;20054;-69
2022/05/13 01:43:43;;;;;;;7.57;3.65;;;;;;;18.32;67.46;101092.81;4926082;29;20039;-68
2022/05/13 01:46:11;;;;;;;7.78;4.22;;;;;;;18.29;66.14;101096.22;4934199;29;20051;-69
2022/05/13 01:48:40;;;;;;;6.85;4.40;;;;;;;18.25;66.53;101090.50;4922276;29;20058;-69
2022/05/13 01:51:09;;;;;;;6.07;4.10;;;;;;;18.26;66.33;101092.13;4922313;29;20054;-69
2022/05/13 01:53:37;;;;;;;4.45;3.80;;;;;;;18.24;64.50;101100.75;4923711;29;20054;-68
2022/05/13 01:56:06;;;;;;;9.02;3.97;;;;;;;18.31;64.42;101091.16;4925648;29;20059;-69
2022/05/13 01:58:34;;;;;;;8.98;3.97;;;;;;;18.21;64.97;101095.88;4932253;29;20048;-69
2022/05/13 02:01:05;;;;;;;9.35;4.68;;;;;;;18.13;64.87;101091.94;4922245;29;20052;-69
2022/05/13 02:03:46;;;;;;;9.82;5.13;;;;;;;18.12;65.62;101092.25;4912714;29;20043;-69
2022/05/13 02:06:18;;;;;;;4.93;4.05;;;;;;;18.07;65.29;101092.38;4919504;29;20048;-69
2022/05/13 02:08:51;;;;;;;10.80;4.75;;;;;;;18.04;66.32;101087.47;4915776;29;20052;-69
2022/05/13 02:11:21;;;;;;;;;;;;;;;18.00;67.17;101087.28;4922043;29;20047;-69
2022/05/13 02:13:51;;;;;;;7.00;4.75;;;;;;;17.93;67.23;101084.97;4918359;29;19938;-68
2022/05/13 02:16:20;;;;;;;8.15;4.72;;;;;;;17.96;66.86;101087.09;4915947;29;20059;-69
2022/05/13 02:18:48;;;;;;;11.70;5.43;;;;;;;17.89;67.08;101089.50;4919398;29;20399;-69
2022/05/13 02:21:17;;;;;;;6.22;4.57;;;;;;;17.95;66.20;101090.97;4926686;29;20054;-68
2022/05/13 02:23:45;;;;;;;8.57;4.65;;;;;;;17.89;67.63;101092.25;4918086;29;20412;-69
2022/05/13 02:26:16;;;;;;;8.55;4.28;;;;;;;17.93;67.34;101092.47;4915983;29;20051;-68
2022/05/13 02:28:44;;;;;;;8.25;4.43;;;;;;;17.80;68.67;101092.22;4919213;29;20052;-69
2022/05/13 02:31:14;;;;;;;7.57;4.18;;;;;;;17.76;69.38;101084.88;4947617;29;20071;-69
2022/05/13 02:33:43;;;;;;;5.28;4.57;;;;;;;17.73;69.72;101098.22;4943417;29;20499;-69
2022/05/13 02:36:12;;;;;;;8.65;4.88;;;;;;;17.77;70.49;101092.03;4933638;29;20051;-68
2022/05/13 02:38:40;;;;;;;6.00;4.88;;;;;;;17.72;70.47;101088.28;4933976;29;20056;-69
2022/05/13 02:41:11;;;;;;;6.95;5.05;;;;;;;17.80;69.95;101094.19;4934221;29;20044;-69
2022/05/13 02:43:50;;;;;;;8.50;4.32;;;;;;;17.78;70.22;101093.69;4939690;29;20487;-69
2022/05/13 02:46:21;;;;;;;6.28;4.57;;;;;;;17.77;71.86;101100.34;4933324;29;20051;-69
2022/05/13 02:48:49;;;;;;;9.15;4.30;;;;;;;17.64;71.20;101105.63;4939782;29;20044;-68
2022/05/13 02:51:18;;;;;;;6.80;4.05;;;;;;;17.66;70.63;101097.84;4939258;29;20079;-69
2022/05/13 02:53:46;;;;;;;5.97;4.38;;;;;;;17.72;71.60;101106.81;4941083;29;20062;-69
2022/05/13 02:56:14;;;;;;;5.50;4.53;;;;;;;17.67;70.32;101105.00;4939211;29;20051;-68
2022/05/13 02:58:45;;;;;;;7.18;4.63;;;;;;;17.68;70.60;101101.09;4933823;29;20060;-69
2022/05/13 03:01:15;;;;;;;8.88;4.43;;;;;;;17.66;70.24;101089.53;4938805;29;20048;-68
2022/05/13 03:03:46;;;;;;;5.65;4.30;;;;;;;17.67;69.63;101085.63;4933789;29;20056;-69
2022/05/13 03:06:15;;;;;;;9.40;4.55;;;;;;;17.60;70.38;101088.03;4933522;29;20525;-69
2022/05/13 03:08:43;;;;;;;4.97;4.10;;;;;;;17.59;70.92;101091.91;4934294;29;20048;-69
2022/05/13 03:11:11;;;;;;;7.60;4.60;;;;;;;17.58;70.71;101090.28;4936378;29;20056;-69
2022/05/13 03:13:39;;;;;;;7.68;4.68;;;;;;;17.54;70.56;101094.84;4934573;29;20487;-69
2022/05/13 03:16:18;;;;;;;7.68;5.07;;;;;;;17.49;70.65;101092.19;4938591;29;20064;-69
2022/05/13 03:18:48;;;;;;;10.43;5.60;;;;;;;17.49;70.66;101086.66;4936954;29;20521;-69
2022/05/13 03:21:16;;;;;;;9.23;4.82;;;;;;;17.43;71.38;101084.00;4939259;29;20058;-69
2022/05/13 03:23:44;;;;;;;6.57;4.85;;;;;;;17.39;71.04;101085.78;4937120;29;20047;-69
2022/05/13 03:26:14;;;;;;;11.10;5.97;;;;;;;17.44;70.73;101099.47;4940482;29;20059;-68
2022/05/13 03:28:43;;;;;;;10.27;6.22;;;;;;;17.46;71.09;101101.94;4936722;29;20419;-68
2022/05/13 03:31:11;;;;;;;8.32;4.55;;;;;;;17.43;71.86;101103.38;4940779;29;20061;-69
2022/05/13 03:33:39;;;;;;;5.43;3.83;;;;;;;17.38;73.01;101092.44;4932701;29;20048;-68
2022/05/13 03:36:12;;;;;;;6.97;4.97;;;;;;;17.17;73.24;101095.69;4941188;29;20478;-68
2022/05/13 03:38:41;;;;;;;7.60;4.07;;;;;;;17.21;72.81;101101.44;4945858;29;20043;-69
2022/05/13 03:41:11;;;;;;;6.32;4.03;;;;;;;17.27;72.75;101097.41;4935025;29;20051;-69
2022/05/13 03:43:38;;;;;;;5.93;4.30;;;;;;;17.03;74.25;101095.75;4941705;29;20047;-69
2022/05/13 03:46:06;;;;;;;7.75;5.38;;;;;;;17.03;75.39;101092.16;4944101;29;20498;-69
2022/05/13 03:48:35;;;;;;;6.05;4.65;;;;;;;17.03;75.56;101100.44;4931091;29;20043;-69
2022/05/13 03:51:03;;;;;;;5.57;4.20;;;;;;;16.88;75.95;101091.34;4932840;29;20040;-69
2022/05/13 03:53:31;;;;;;;6.15;4.15;;;;;;;16.78;77.46;101094.31;4947546;29;20051;-69
2022/05/13 03:55:59;;;;;;;7.25;4.55;;;;;;;16.87;76.67;101091.66;4940958;29;20039;-69
2022/05/13 03:58:26;;;;;;;4.93;3.88;;;;;;;17.03;76.45;101092.97;4943232;29;20042;-69
2022/05/13 04:00:54;;;;;;;6.50;3.95;;;;;;;16.95;77.41;101098.41;4937180;29;20043;-69
2022/05/13 04:03:23;;;;;;;8.85;3.92;;;;;;;16.92;77.46;101097.88;4938126;29;20047;-69
2022/05/13 04:08:59;;;;;;;6.32;4.18;;;;;;;16.99;76.64;101097.44;4938528;29;20055;-68
2022/05/13 04:11:32;;;;;;;6.15;4.15;;;;;;;16.91;78.80;101092.63;4939280;29;20479;-69
2022/05/13 04:16:47;;;;;;;6.82;4.97;;;;;;;16.99;79.35;101096.63;4936745;29;20039;-68
2022/05/13 04:19:15;;;;;;;7.80;4.75;;;;;;;17.01;78.90;101102.69;4937300;29;20131;-69
2022/05/13 04:21:44;;;;;;;7.40;5.72;;;;;;;17.11;78.29;101098.88;4935678;29;20063;-68
2022/05/13 04:24:17;;;;;;;9.85;5.90;;;;;;;17.07;78.57;101095.94;4942284;29;20069;-69
2022/05/13 04:26:47;;;;;;;8.20;5.15;;;;;;;17.15;78.49;101099.88;4923556;29;20067;-68
2022/05/13 04:29:15;;;;;;;7.82;5.75;;;;;;;17.17;78.95;101098.44;4943500;28;20047;-69
2022/05/13 04:31:44;;;;;;;8.65;5.57;;;;;;;17.17;78.30;101101.22;4942805;29;20055;-69
2022/05/13 04:34:13;;;;;;;8.15;6.07;;;;;;;17.28;78.66;101109.28;4933814;29;20396;-68
2022/05/13 04:36:41;;;;;;;11.10;6.63;;;;;;;17.34;77.83;101105.25;4941920;29;20062;-69
2022/05/13 04:39:09;;;;;;;8.27;6.45;;;;;;;17.47;78.86;101111.88;4947329;29;20055;-69
2022/05/13 04:44:24;;;;;;;12.90;7.18;;;;;;;17.75;77.00;101121.97;4940915;29;20074;-68
2022/05/13 04:46:51;;;;;;;10.57;6.15;;;;;;;17.93;76.54;101117.38;4933770;29;20087;-69
2022/05/13 04:49:19;;;;;;;11.63;6.00;;;;;;;18.03;77.01;101127.38;4939475;29;20055;-69
2022/05/13 04:51:54;;;;;;;9.00;6.20;;;;;;;18.02;77.39;101131.28;4931707;29;20047;-69
2022/05/13 04:54:22;;;;;;;8.07;6.13;;;;;;;18.12;75.54;101128.25;4933467;29;20044;-69
2022/05/13 04:56:50;;;;;;;9.25;6.28;;;;;;;18.26;75.96;101136.47;4936592;29;20055;-68
2022/05/13 04:59:19;;;;;;;9.30;6.50;;;;;;;18.19;76.63;101131.38;4928354;29;20062;-68
2022/05/13 05:01:47;;;;;;;10.00;5.60;;;;;;;18.29;75.36;101132.25;4930601;29;20054;-68
2022/05/13 05:04:15;;;;;;;9.27;6.13;;;;;;;18.40;75.24;101136.38;4935148;29;20403;-68
2022/05/13 05:06:43;;;;;;;11.63;6.38;;;;;;;18.58;73.72;101137.22;4942728;29;20491;-67
2022/05/13 05:09:11;;;;;;;8.75;5.65;;;;;;;18.77;72.53;101136.97;4927932;29;20055;-67
2022/05/13 05:11:39;;;;;;;11.18;6.00;;;;;;;19.08;71.56;101143.59;4936161;29;20048;-67
2022/05/13 05:14:06;;;;;;;11.10;6.90;;;;;;;19.17;70.84;101132.50;4925697;29;20141;-68
2022/05/13 05:16:41;;;;;;;8.93;5.80;;;;;;;19.22;70.35;101131.50;4927887;29;20067;-68
2022/05/13 05:19:10;;;;;;;11.15;6.60;;;;;;;19.20;70.34;101140.16;4932866;29;20047;-70
2022/05/13 05:21:37;;;;;;;12.60;6.28;;;;;;;19.31;70.12;101147.00;4934535;29;20660;-70
2022/05/13 05:24:06;;;;;;;9.25;6.28;;;;;;;19.48;69.37;101139.84;4941238;29;20040;-70
2022/05/13 05:26:33;;;;;;;11.98;6.65;;;;;;;19.63;69.62;101151.56;4937234;29;20067;-69
2022/05/13 05:29:01;;;;;;;9.25;6.07;;;;;;;19.60;70.15;101148.31;4937973;29;20059;-69
2022/05/13 05:31:29;;;;;;;11.20;6.43;;;;;;;19.68;69.72;101154.19;4934381;29;20047;-69
2022/05/13 05:33:57;;;;;;;8.50;5.93;;;;;;;19.73;68.65;101163.16;4933958;29;20495;-69
2022/05/13 05:36:25;;;;;;;10.02;5.95;;;;;;;19.79;68.10;101166.59;4934024;29;20487;-69
2022/05/13 05:38:53;;;;;;;8.98;5.25;;;;;;;19.75;67.60;101168.41;4933960;29;20403;-69
2022/05/13 05:41:21;;;;;;;9.13;5.53;;;;;;;19.90;67.87;101171.81;4934909;29;20395;-69
2022/05/13 05:43:50;;;;;;;9.75;5.63;;;;;;;19.95;66.69;101172.44;4932619;29;20419;-69
2022/05/13 05:46:19;;;;;;;8.75;5.45;;;;;;;20.08;65.82;101167.88;4942588;29;20039;-70
2022/05/13 05:48:47;;;;;;;6.88;5.22;;;;;;;20.21;65.73;101163.25;4945530;29;20055;-71
2022/05/13 05:51:15;;;;;;;8.52;5.88;;;;;;;20.27;65.55;101164.72;4934970;29;20039;-70
2022/05/13 05:59:17;;;;;;;8.23;5.68;;;;;;;20.16;66.41;101165.38;4937961;29;20062;-70
2022/05/13 06:01:49;;;;;;;9.63;5.97;;;;;;;20.34;65.63;101177.28;4933432;28;20044;-69
2022/05/13 06:04:22;;;;;;;9.20;6.40;;;;;;;20.48;66.66;101169.53;4932932;28;20043;-69
2022/05/13 06:06:50;;;;;;;13.55;6.07;;;;;;;20.38;65.95;101179.06;4936721;28;20054;-70
2022/05/13 06:09:18;;;;;;;9.48;5.57;;;;;;;20.48;65.39;101171.50;4942561;28;20048;-69
2022/05/13 06:11:46;;;;;;;13.10;6.25;;;;;;;20.63;64.08;101168.16;4937954;28;20048;-70
2022/05/13 06:14:15;;;;;;;10.23;5.55;;;;;;;20.49;64.96;101164.78;4942366;29;20055;-70
2022/05/13 06:16:43;;;;;;;9.43;5.63;;;;;;;20.60;64.47;101168.84;4924133;29;20403;-70
2022/05/13 06:19:11;;;;;;;9.10;6.13;;;;;;;20.74;64.55;101167.78;4933542;29;20403;-70
2022/05/13 06:21:39;;;;;;;9.63;5.80;;;;;;;20.71;64.91;101171.25;4933901;29;20052;-70
2022/05/13 06:24:07;;;;;;;9.68;6.28;;;;;;;20.81;64.75;101176.41;4944061;29;20052;-70
2022/05/13 06:26:36;;;;;;;10.82;6.80;;;;;;;20.75;65.59;101175.78;4940952;29;20069;-70
2022/05/13 06:29:05;;;;;;;9.27;6.65;;;;;;;20.89;63.53;101178.38;4933313;29;20043;-70
2022/05/13 06:31:34;;;;;;;11.15;6.82;;;;;;;21.09;63.90;101181.50;4936080;29;20060;-71
2022/05/13 06:34:02;;;;;;;9.68;6.47;;;;;;;21.27;63.44;101186.97;4936292;28;20043;-70
2022/05/13 06:36:31;;;;;;;11.27;7.10;;;;;;;21.28;62.85;101177.44;4926374;29;20035;-70
2022/05/13 06:38:59;;;;;;;10.32;6.60;;;;;;;21.28;63.46;101178.28;4938396;28;20047;-70
2022/05/13 06:41:27;;;;;;;12.60;6.80;;;;;;;21.31;62.95;101177.56;4923724;29;20052;-70
2022/05/13 06:43:55;;;;;;;13.05;7.18;;;;;;;21.40;64.19;101183.06;4945862;28;20407;-70
2022/05/13 06:46:23;;;;;;;11.70;7.93;;;;;;;21.48;63.24;101176.66;4916532;29;20047;-70
2022/05/13 06:48:51;;;;;;;9.70;6.95;;;;;;;21.55;62.70;101181.66;4945587;29;20059;-70
2022/05/13 06:51:19;;;;;;;13.50;7.22;;;;;;;21.48;62.66;101176.66;4939775;28;20059;-70
2022/05/13 06:53:47;;;;;;;10.10;6.35;;;;;;;21.51;63.23;101177.91;4940623;29;20051;-70
2022/05/13 06:56:15;;;;;;;11.55;7.57;;;;;;;21.67;62.01;101180.06;4937118;29;20040;-70
2022/05/13 06:58:43;;;;;;;11.77;7.25;;;;;;;21.77;62.36;101176.91;4932231;29;20043;-71
2022/05/13 07:01:11;;;;;;;12.60;7.38;;;;;;;21.84;62.48;101179.94;4943567;28;20039;-70
2022/05/13 07:03:39;;;;;;;11.82;7.05;;;;;;;21.75;62.50;101184.75;4945174;29;20048;-70
2022/05/13 07:06:07;;;;;;;11.50;7.13;;;;;;;21.78;62.32;101172.13;4938619;28;20048;-70
2022/05/13 07:08:35;;;;;;;11.48;6.90;;;;;;;21.83;61.50;101185.84;4936522;29;20407;-70
2022/05/13 07:11:03;;;;;;;10.30;7.43;;;;;;;21.98;62.26;101176.84;4936384;29;20542;-70
2022/05/13 07:13:30;;;;;;;10.18;7.18;;;;;;;22.13;62.32;101185.69;4936544;29;20055;-71
2022/05/13 07:15:59;;;;;;;13.90;7.57;;;;;;;22.10;61.66;101191.97;4936889;29;20062;-71
2022/05/13 07:18:28;;;;;;;10.02;7.13;;;;;;;22.07;61.78;101187.91;4936489;29;20499;-70
2022/05/13 07:20:56;;;;;;;11.10;7.72;;;;;;;21.91;61.66;101178.56;4920421;29;20060;-70
2022/05/13 07:23:24;;;;;;;12.07;7.75;;;;;;;21.92;63.51;101181.00;4936643;29;20051;-71
2022/05/13 07:25:53;;;;;;;12.13;7.05;;;;;;;22.11;62.16;101183.28;4919945;29;20495;-70
2022/05/13 07:28:22;;;;;;;11.38;7.88;;;;;;;22.14;61.76;101179.78;4936841;29;20051;-71
2022/05/13 07:30:49;;;;;;;12.95;7.03;;;;;;;22.12;61.34;101173.75;4917783;29;20047;-70
2022/05/13 07:33:17;;;;;;;15.23;7.57;;;;;;;22.17;62.31;101172.72;4917737;29;20523;-71
2022/05/13 07:35:45;;;;;;;10.48;7.32;;;;;;;22.21;62.11;101168.09;4917424;29;20044;-71
2022/05/13 07:38:14;;;;;;;11.52;7.15;;;;;;;22.32;61.75;101178.78;4917520;29;20059;-71
2022/05/13 07:43:28;;;;;;;13.00;7.55;;;;;;;22.57;61.23;101170.47;4917435;29;20047;-71
2022/05/13 07:45:56;;;;;;;12.70;7.90;;;;;;;22.64;61.10;101168.72;4917234;29;20055;-71
2022/05/13 07:48:24;;;;;;;15.27;7.72;;;;;;;22.76;60.41;101178.25;4899982;29;20503;-71
2022/05/13 07:50:52;;;;;;;11.90;7.35;;;;;;;22.79;61.01;101172.78;4917450;29;20532;-71
2022/05/13 07:53:20;;;;;;;10.60;7.80;;;;;;;22.95;59.84;101172.06;4917073;29;20044;-71
2022/05/13 07:55:48;;;;;;;14.00;8.32;;;;;;;23.10;60.10;101173.31;4917354;29;20044;-71
2022/05/13 07:58:16;;;;;;;12.25;8.05;;;;;;;23.27;59.31;101177.03;4917109;29;20036;-71
2022/05/13 08:00:44;;;;;;;13.27;8.25;;;;;;;23.12;58.93;101165.41;4917265;29;20047;-71
2022/05/13 08:03:16;;;;;;;11.52;7.80;;;;;;;23.12;60.46;101161.81;4916993;29;20111;-70
2022/05/13 08:05:51;;;;;;;12.35;7.93;;;;;;;23.15;60.10;101175.06;4917073;29;20048;-70
2022/05/13 08:08:30;;;;;;;11.90;7.55;;;;;;;23.23;58.73;101172.13;4916969;29;20381;-71
2022/05/13 08:11:00;;;;;;;11.70;7.72;;;;;;;23.35;59.71;101179.69;4917049;29;20047;-71
2022/05/13 08:13:34;;;;;;;20.45;9.27;;;;;;;23.20;59.77;101181.22;4916754;29;20043;-71
2022/05/13 08:16:07;;;;;;;13.18;8.48;;;;;;;23.28;60.39;101171.09;4916902;29;20424;-70
2022/05/13 08:18:35;;;;;;;9.85;7.32;;;;;;;23.57;58.83;101180.34;4916718;29;20044;-71
2022/05/13 08:21:03;;;;;;;13.48;7.32;;;;;;;23.43;59.05;101174.31;4916897;29;20044;-70
2022/05/13 08:23:31;;;;;;;13.90;8.57;;;;;;;23.44;59.55;101178.72;4916626;29;20048;-70
2022/05/13 08:25:59;;;;;;;9.20;7.63;;;;;;;23.52;58.85;101175.00;4916484;29;20044;-71
2022/05/13 08:28:27;;;;;;;11.35;7.80;;;;;;;23.40;58.11;101180.63;4916962;29;20040;-70
2022/05/13 08:30:55;;;;;;;10.80;7.55;;;;;;;23.53;57.95;101178.59;4935733;29;20073;-71
2022/05/13 08:33:23;;;;;;;11.07;6.53;;;;;;;23.61;57.83;101175.66;4935495;29;20059;-71
2022/05/13 08:35:58;;;;;;;9.25;6.82;;;;;;;23.73;57.44;101173.97;4935342;29;20051;-71
2022/05/13 08:38:29;;;;;;;10.27;7.10;;;;;;;23.73;55.77;101166.41;4935420;29;20044;-70
2022/05/13 08:41:02;;;;;;;16.42;7.28;;;;;;;23.80;55.28;101162.97;4935274;29;20044;-70
2022/05/13 08:43:35;;;;;;;11.98;6.20;;;;;;;23.90;55.17;101161.66;4935314;29;20039;-71
2022/05/13 08:46:05;;;;;;;9.77;6.60;;;;;;;24.01;56.11;101153.56;4935079;29;20504;-70
2022/05/13 08:48:50;;;;;;;12.50;7.57;;;;;;;24.10;57.13;101153.44;4935365;29;20047;-70
2022/05/13 08:51:29;;;;;;;10.27;7.00;;;;;;;23.97;56.41;101150.69;4935049;29;20048;-70
2022/05/13 08:54:11;;;;;;;10.18;7.28;;;;;;;24.19;56.32;101151.25;4935237;29;20063;-70
2022/05/13 08:56:39;;;;;;;15.55;8.70;;;;;;;24.14;56.81;101146.75;4935036;29;20059;-70
2022/05/13 08:59:15;;;;;;;12.00;7.35;;;;;;;24.13;57.23;101152.69;4935103;29;20050;-70
2022/05/13 09:01:54;;;;;;;13.60;8.25;;;;;;;24.12;57.37;101143.50;4935019;29;20048;-71
2022/05/13 09:04:27;;;;;;;11.27;8.40;;;;;;;24.14;57.63;101152.34;4935040;29;20052;-70
2022/05/13 09:07:00;;;;;;;12.35;8.10;;;;;;;24.24;57.18;101158.59;4934749;29;20379;-70
2022/05/13 09:09:28;;;;;;;12.82;8.45;;;;;;;24.35;56.53;101153.25;4935037;29;20048;-70
2022/05/13 09:11:59;;;;;;;10.95;7.45;;;;;;;24.49;56.57;101147.19;4934246;29;20039;-71
2022/05/13 09:14:39;;;;;;;12.43;8.13;;;;;;;24.59;55.47;101141.06;4918083;29;20124;-70
2022/05/13 09:17:31;;;;;;;11.63;8.15;;;;;;;24.51;56.08;101139.25;4934734;29;20047;-70
2022/05/13 09:20:15;;;;;;;10.38;7.28;;;;;;;24.73;56.33;101150.97;4934650;29;20075;-71
2022/05/13 09:22:44;;;;;;;16.15;8.90;;;;;;;24.82;55.97;101146.00;4934681;29;20055;-70
2022/05/13 09:25:21;;;;;;;12.02;8.30;;;;;;;24.80;53.90;101148.31;4934347;29;20051;-70
2022/05/13 09:27:57;;;;;;;12.18;8.25;;;;;;;24.90;54.54;101145.00;4934621;29;20058;-71
2022/05/13 09:30:34;;;;;;;15.20;8.70;;;;;;;24.95;55.40;101144.72;4934318;29;20047;-70
2022/05/13 09:33:17;;;;;;;13.82;8.70;;;;;;;25.02;54.84;101141.25;4934557;29;20051;-70
2022/05/13 09:35:47;;;;;;;12.20;7.40;;;;;;;24.83;54.94;101139.25;4934291;29;20051;-70
2022/05/13 09:38:23;;;;;;;10.70;7.38;;;;;;;25.05;54.88;101131.31;4934478;29;20044;-70
2022/05/13 09:41:03;;;;;;;11.88;7.70;;;;;;;25.21;54.38;101128.44;4934320;29;20067;-71
2022/05/13 09:43:44;;;;;;;13.27;8.35;;;;;;;25.22;55.64;101127.28;4934382;29;20039;-71
2022/05/13 09:46:31;;;;;;;12.15;8.00;;;;;;;25.37;53.26;101125.59;4920807;29;20065;-71
2022/05/13 09:49:05;;;;;;;17.52;8.23;;;;;;;25.38;53.11;101123.59;4934360;29;20047;-71
2022/05/13 09:51:36;;;;;;;11.60;8.43;;;;;;;25.52;52.47;101134.25;4933801;29;20419;-71
2022/05/13 09:54:23;;;;;;;11.55;8.18;;;;;;;25.55;52.76;101128.75;4933592;29;20403;-71
2022/05/13 09:57:10;;;;;;;12.77;7.90;;;;;;;25.73;52.82;101131.09;4916993;29;20048;-71
2022/05/13 09:59:44;;;;;;;12.40;8.55;;;;;;;25.58;52.50;101121.59;4934401;29;20044;-70
2022/05/13 10:02:33;;;;;;;15.43;8.68;;;;;;;25.60;50.88;101113.63;4934460;29;20407;-70
2022/05/13 10:05:16;;;;;;;11.98;7.88;;;;;;;25.82;51.13;101114.03;4934410;29;20047;-71
2022/05/13 10:07:59;;;;;;;11.73;8.00;;;;;;;26.09;51.23;101114.13;4934421;29;20403;-71
2022/05/13 10:16:10;;;;;;;13.98;8.38;;;;;;;25.99;51.83;101099.53;4934356;29;20040;-71
2022/05/13 10:18:59;;;;;;;11.23;7.95;;;;;;;26.11;50.26;101098.53;4917718;29;20051;-70
2022/05/13 10:21:33;;;;;;;11.13;8.18;;;;;;;26.27;49.25;101103.22;4934427;29;20055;-71
2022/05/13 10:24:27;;;;;;;14.48;8.43;;;;;;;26.22;50.30;101103.50;4918272;29;20047;-71
2022/05/13 10:26:58;;;;;;;11.20;7.73;;;;;;;26.34;49.91;101105.34;4938088;29;20059;-71
2022/05/13 10:29:33;;;;;;;11.00;7.57;;;;;;;26.44;49.66;101101.88;4921283;29;20063;-71
2022/05/13 10:32:06;;;;;;;11.55;7.53;;;;;;;26.52;50.11;101088.75;4938189;29;20050;-70
2022/05/13 10:34:40;;;;;;;12.00;8.05;;;;;;;26.64;50.82;101098.97;4921154;29;20054;-70
2022/05/13 10:37:08;;;;;;;16.38;9.35;;;;;;;26.45;48.75;101092.28;4938012;29;20514;-70
2022/05/13 10:39:51;;;;;;;11.57;8.25;;;;;;;26.36;48.55;101088.94;4937992;29;20051;-70
2022/05/13 10:42:22;;;;;;;12.43;8.30;;;;;;;26.67;49.23;101086.97;4937890;29;20491;-70
2022/05/13 10:45:11;;;;;;;12.18;7.63;;;;;;;26.73;49.68;101090.28;4937748;29;20064;-70
2022/05/13 10:48:01;;;;;;;11.75;7.97;;;;;;;26.78;50.50;101085.13;4937956;29;20040;-70
2022/05/13 10:50:59;;;;;;;13.18;9.13;;;;;;;26.94;50.97;101084.16;4937768;29;20047;-70
2022/05/13 10:53:48;;;;;;;18.83;9.20;;;;;;;26.94;49.55;101062.50;4937734;29;20051;-71
2022/05/13 10:56:22;;;;;;;13.35;8.40;;;;;;;27.10;48.39;101076.34;4937660;29;20055;-70
2022/05/13 10:59:09;;;;;;;15.25;9.63;;;;;;;27.17;48.11;101084.03;4927900;29;20044;-71
2022/05/13 11:01:45;;;;;;;12.40;8.90;;;;;;;27.26;47.89;101074.53;4932801;29;20522;-70
2022/05/13 11:04:22;;;;;;;16.17;9.20;;;;;;;27.31;47.18;101074.97;4933584;29;20525;-70
2022/05/13 11:07:32;;;;;;;13.25;8.38;;;;;;;27.30;47.65;101075.34;4931739;29;20055;-70
2022/05/13 11:10:30;;;;;;;13.98;9.13;;;;;;;27.21;46.86;101062.44;4935947;29;20039;-70
2022/05/13 11:13:05;;;;;;;12.35;8.38;;;;;;;27.34;46.52;101067.78;4933646;29;20109;-70
2022/05/13 11:15:33;;;;;;;14.70;8.95;;;;;;;27.42;45.86;101063.06;4934884;29;20708;-70
2022/05/13 11:18:24;;;;;;;13.90;8.70;;;;;;;27.35;46.57;101064.59;4936495;29;20047;-70
2022/05/13 11:21:27;;;;;;;12.07;8.45;;;;;;;27.48;46.26;101051.06;4916123;29;20039;-70
2022/05/13 11:27:44;;;;;;;16.80;9.57;;;;;;;27.65;45.45;101046.03;4935590;29;20035;-69
2022/05/13 11:30:25;;;;;;;14.52;9.43;;;;;;;27.98;46.53;101046.31;4934714;29;20054;-70
2022/05/13 11:33:01;;;;;;;11.77;7.63;;;;;;;27.52;43.02;101045.50;4934516;29;20039;-70
2022/05/13 11:35:44;;;;;;;13.68;8.82;;;;;;;27.52;43.74;101041.88;4933587;29;20399;-70
2022/05/13 11:38:19;;;;;;;13.30;7.90;;;;;;;27.51;45.70;101032.63;4933060;29;20423;-70
2022/05/13 11:41:04;;;;;;;13.35;8.80;;;;;;;27.95;46.14;101033.06;4933599;29;20044;-70
2022/05/13 11:44:02;;;;;;;16.30;10.40;;;;;;;28.10;45.37;101029.13;4919213;29;20051;-70
2022/05/13 11:47:01;;;;;;;18.45;10.45;;;;;;;28.10;46.34;101020.69;4931822;29;20044;-72
2022/05/13 11:49:47;;;;;;;13.57;9.02;;;;;;;28.35;46.18;101017.25;4934619;29;20062;-70
2022/05/13 11:52:45;;;;;;;15.90;8.88;;;;;;;28.69;45.54;101013.44;4933182;29;20384;-70
2022/05/13 11:55:34;;;;;;;15.10;10.05;;;;;;;28.40;44.51;101002.03;4931876;29;20055;-70
2022/05/13 11:58:46;;;;;;;20.80;10.20;;;;;;;28.72;46.63;101006.22;4932616;29;20164;-70
2022/05/13 12:01:48;;;;;;;;;;;;;;;;;;;;;
2022/05/13 12:04:21;;;;;;;16.85;8.90;;;;;;;28.69;45.98;100994.50;4938048;28;20047;-71
2022/05/13 12:06:49;;;;;;;20.27;10.20;;;;;;;28.52;44.87;100998.06;4941837;28;20051;-70
2022/05/13 12:09:29;;;;;;;10.13;8.15;;;;;;;28.65;44.25;100987.25;4931877;29;20399;-71
2022/05/13 12:12:03;;;;;;;13.98;8.57;;;;;;;28.73;45.00;100982.47;4935208;29;20047;-71